Terminal Aerodrome Forecast
Issued by NWS Greer, SC

Home | Current Version | Previous Version | Text Only | Print | Product List | Glossary On
Versions: 1 2 3 4 5 6 7 8 9 10 11 12 13 14 15 16 17 18 19 20 21 22 23 24 25 26 27 28 29 30 31 32 33 34 35 36 37 38 39 40 41 42 43 44 45 46
000
FTUS42 KGSP 042340
TAFCLT
TAF
KCLT 042340Z 0500/0524 03004KT P6SM -RA SCT006 OVC030
      TEMPO 0500/0502 BKN006 OVC025
     FM050200 02003KT 5SM -RA BR SCT004 OVC008
     FM050500 02003KT 2SM BR OVC003
     FM051500 02003KT P6SM BKN015
     FM051700 03004KT P6SM BKN060=

USA.gov is the U.S. government's official web portal to all federal, state and local government web resources and services.